createdAt,value
2023-04-17T00:00:51.635Z,17.67
2023-04-17T00:03:18.890Z,18.17
2023-04-17T00:05:46.371Z,17.88
2023-04-17T00:08:13.554Z,17.55
2023-04-17T00:10:41.301Z,18.48
2023-04-17T00:13:08.479Z,17.67
2023-04-17T00:15:35.742Z,16.88
2023-04-17T00:18:02.976Z,17.23
2023-04-17T00:20:30.158Z,17.73
2023-04-17T00:22:57.360Z,17.35
2023-04-17T00:25:24.739Z,17.52
2023-04-17T00:27:51.953Z,17.35
2023-04-17T00:30:19.375Z,16.45
2023-04-17T00:32:46.597Z,16.83
2023-04-17T00:35:14.203Z,18.33
2023-04-17T00:37:41.458Z,17.13
2023-04-17T00:40:09.831Z,17.13
2023-04-17T00:42:37.007Z,16.20
2023-04-17T00:45:05.600Z,17.27
2023-04-17T00:47:33.393Z,15.65
2023-04-17T00:50:00.786Z,17.05
2023-04-17T00:52:30.026Z,18.05
2023-04-17T00:55:00.194Z,17.83
2023-04-17T00:57:27.791Z,16.20
2023-04-17T00:59:58.312Z,17.35
2023-04-17T01:02:26.892Z,18.08
2023-04-17T01:04:54.767Z,17.48
2023-04-17T01:07:22.598Z,17.70
2023-04-17T01:09:49.795Z,17.48
2023-04-17T01:12:24.509Z,17.00
2023-04-17T01:14:56.735Z,17.65
2023-04-17T01:17:27.984Z,19.35
2023-04-17T01:19:56.708Z,20.38
2023-04-17T01:22:24.729Z,18.65
2023-04-17T01:24:56.456Z,20.17
2023-04-17T01:27:26.307Z,21.47
2023-04-17T01:29:53.622Z,20.77
2023-04-17T01:32:20.904Z,20.20
2023-04-17T01:34:48.205Z,21.27
2023-04-17T01:37:15.426Z,21.52
2023-04-17T01:39:42.618Z,20.50
2023-04-17T01:42:09.935Z,21.48
2023-04-17T01:44:37.642Z,20.92
2023-04-17T01:47:05.032Z,20.67
2023-04-17T01:49:32.616Z,18.60
2023-04-17T01:52:00.276Z,19.63
2023-04-17T01:54:27.612Z,24.17
2023-04-17T01:56:54.894Z,19.60
2023-04-17T01:59:22.194Z,19.08
2023-04-17T02:01:53.794Z,19.73
2023-04-17T02:04:21.265Z,19.27
2023-04-17T02:06:48.637Z,20.10
2023-04-17T02:09:17.353Z,18.52
2023-04-17T02:11:44.591Z,18.80
2023-04-17T02:14:11.957Z,19.58
2023-04-17T02:16:40.065Z,20.15
2023-04-17T02:19:07.478Z,19.50
2023-04-17T02:21:34.708Z,19.95
2023-04-17T02:24:05.752Z,18.63
2023-04-17T02:26:33.057Z,19.65
2023-04-17T02:29:00.744Z,17.98
2023-04-17T02:31:28.072Z,19.10
2023-04-17T02:33:55.517Z,20.08
2023-04-17T02:36:22.724Z,20.10
2023-04-17T02:38:50.118Z,19.65
2023-04-17T02:41:17.340Z,22.58
2023-04-17T02:43:48.389Z,20.63
2023-04-17T02:46:17.526Z,22.25
2023-04-17T02:48:44.788Z,23.42
2023-04-17T02:51:12.062Z,23.10
2023-04-17T02:53:39.359Z,22.35
2023-04-17T02:56:06.845Z,23.10
2023-04-17T02:58:35.219Z,23.63
2023-04-17T03:01:04.165Z,25.30
2023-04-17T03:03:35.815Z,23.60
2023-04-17T03:06:06.960Z,24.35
2023-04-17T03:08:35.811Z,23.75
2023-04-17T03:11:03.735Z,24.38
2023-04-17T03:13:31.500Z,26.38
2023-04-17T03:15:59.268Z,27.05
2023-04-17T03:18:27.102Z,26.00
2023-04-17T03:20:54.438Z,25.73
2023-04-17T03:23:21.684Z,25.75
2023-04-17T03:25:50.602Z,27.30
2023-04-17T03:28:18.604Z,27.05
2023-04-17T03:30:45.930Z,27.48
2023-04-17T03:33:13.132Z,27.13
2023-04-17T03:35:41.012Z,26.30
2023-04-17T03:38:10.035Z,29.85
2023-04-17T03:40:37.614Z,27.73
2023-04-17T03:43:05.010Z,25.45
2023-04-17T03:45:33.063Z,26.52
2023-04-17T03:48:01.460Z,28.30
2023-04-17T03:50:29.195Z,26.95
2023-04-17T03:52:57.684Z,29.77
2023-04-17T03:55:28.036Z,28.25
2023-04-17T03:57:55.820Z,28.85
2023-04-17T04:00:24.854Z,28.98
2023-04-17T04:02:57.377Z,32.08
2023-04-17T04:05:33.163Z,30.88
2023-04-17T04:08:00.796Z,33.58
2023-04-17T04:10:46.208Z,33.47
2023-04-17T04:13:18.905Z,33.05
2023-04-17T04:15:52.187Z,31.98
2023-04-17T04:18:21.684Z,32.50
2023-04-17T04:20:49.102Z,30.95
2023-04-17T04:23:25.147Z,30.65
2023-04-17T04:25:56.922Z,33.17
2023-04-17T04:28:48.642Z,30.42
2023-04-17T04:31:21.624Z,29.27
2023-04-17T04:33:55.202Z,29.85
2023-04-17T04:36:23.973Z,29.27
2023-04-17T04:39:02.116Z,31.00
2023-04-17T04:41:34.644Z,28.88
2023-04-17T04:44:05.108Z,27.95
2023-04-17T04:46:34.662Z,27.63
2023-04-17T04:49:02.767Z,27.80
2023-04-17T04:51:31.968Z,29.45
2023-04-17T04:53:59.465Z,26.98
2023-04-17T04:56:27.286Z,28.20
2023-04-17T04:58:56.292Z,26.35
2023-04-17T05:01:24.292Z,26.88
2023-04-17T05:03:51.836Z,27.83
2023-04-17T05:06:23.627Z,27.27
2023-04-17T05:08:57.013Z,28.75
2023-04-17T05:11:26.160Z,28.95
2023-04-17T05:13:53.522Z,28.70
2023-04-17T05:16:28.372Z,27.90
2023-04-17T05:18:56.349Z,27.15
2023-04-17T05:21:42.981Z,28.13
2023-04-17T05:24:10.436Z,28.42
2023-04-17T05:26:37.657Z,28.48
2023-04-17T05:29:05.896Z,29.10
2023-04-17T05:31:34.346Z,28.85
2023-04-17T05:34:06.289Z,28.00
2023-04-17T05:36:34.085Z,28.83
2023-04-17T05:39:04.036Z,27.70
2023-04-17T05:41:31.508Z,25.33
2023-04-17T05:43:58.840Z,28.10
2023-04-17T05:46:26.097Z,29.65
2023-04-17T05:48:53.356Z,27.92
2023-04-17T05:51:21.663Z,29.27
2023-04-17T05:53:49.246Z,28.00
2023-04-17T05:56:16.548Z,27.88
2023-04-17T05:58:44.056Z,28.60
2023-04-17T06:01:13.039Z,28.65
2023-04-17T06:03:40.833Z,27.48
2023-04-17T06:06:16.578Z,29.35
2023-04-17T06:08:44.093Z,27.05
2023-04-17T06:11:11.484Z,28.58
2023-04-17T06:13:39.019Z,28.73
2023-04-17T06:16:06.696Z,28.33
2023-04-17T06:18:34.257Z,29.27
2023-04-17T06:21:01.944Z,28.40
2023-04-17T06:23:29.205Z,28.50
2023-04-17T06:25:56.817Z,26.83
2023-04-17T06:28:24.149Z,29.00
2023-04-17T06:30:54.099Z,28.23
2023-04-17T06:33:22.385Z,28.58
2023-04-17T06:35:50.605Z,27.08
2023-04-17T06:38:31.109Z,26.92
2023-04-17T06:40:58.366Z,27.67
2023-04-17T06:43:25.641Z,27.33
2023-04-17T06:45:53.895Z,24.88
2023-04-17T06:48:21.160Z,25.27
2023-04-17T06:50:49.651Z,26.00
2023-04-17T06:53:16.962Z,27.15
2023-04-17T06:55:45.239Z,28.23
2023-04-17T06:58:12.929Z,28.60
2023-04-17T07:00:40.115Z,26.55
2023-04-17T07:03:08.043Z,25.70
2023-04-17T07:05:35.403Z,26.15
2023-04-17T07:08:02.686Z,28.73
2023-04-17T07:10:29.985Z,25.63
2023-04-17T07:12:57.327Z,27.63
2023-04-17T07:15:24.776Z,27.27
2023-04-17T07:17:52.096Z,28.58
2023-04-17T07:20:19.279Z,27.00
2023-04-17T07:22:46.791Z,26.88
2023-04-17T07:25:14.055Z,26.38
2023-04-17T07:27:41.442Z,24.50
2023-04-17T07:30:09.889Z,21.38
2023-04-17T07:32:37.254Z,24.15
2023-04-17T07:35:05.134Z,24.38
2023-04-17T07:37:33.921Z,25.98
2023-04-17T07:40:01.267Z,26.70
2023-04-17T07:42:29.346Z,24.15
2023-04-17T07:44:57.568Z,27.00
2023-04-17T07:47:24.882Z,26.25
2023-04-17T07:49:52.209Z,26.92
2023-04-17T07:52:19.487Z,24.50
2023-04-17T07:54:46.740Z,23.17
2023-04-17T07:57:15.616Z,22.38
2023-04-17T07:59:43.077Z,21.95
2023-04-17T08:02:10.716Z,23.27
2023-04-17T08:04:40.372Z,23.42
2023-04-17T08:07:10.739Z,24.33
2023-04-17T08:09:38.574Z,24.20
2023-04-17T08:12:06.780Z,25.05
2023-04-17T08:14:34.248Z,23.98
2023-04-17T08:17:02.610Z,24.52
2023-04-17T08:19:30.149Z,25.25
2023-04-17T08:22:06.229Z,24.77
2023-04-17T08:24:33.702Z,26.60
2023-04-17T08:27:01.670Z,24.42
2023-04-17T08:29:28.899Z,23.83
2023-04-17T08:32:12.687Z,24.83
2023-04-17T08:34:41.843Z,25.08
2023-04-17T08:37:09.133Z,24.27
2023-04-17T08:39:36.514Z,23.63
2023-04-17T08:42:13.375Z,25.42
2023-04-17T08:44:45.079Z,23.40
2023-04-17T08:47:13.722Z,25.13
2023-04-17T08:49:43.768Z,24.30
2023-04-17T08:52:11.675Z,25.52
2023-04-17T08:54:39.656Z,24.55
2023-04-17T08:57:07.184Z,26.55
2023-04-17T08:59:34.716Z,26.08
2023-04-17T09:02:07.900Z,26.85
2023-04-17T09:04:45.813Z,25.70
2023-04-17T09:07:15.535Z,26.10
2023-04-17T09:09:49.799Z,24.43
2023-04-17T09:12:18.938Z,25.67
2023-04-17T09:14:46.432Z,24.83
2023-04-17T09:17:19.390Z,23.95
2023-04-17T09:20:09.851Z,24.52
2023-04-17T09:22:40.425Z,23.05
2023-04-17T09:25:18.911Z,22.85
2023-04-17T09:27:46.481Z,24.27
2023-04-17T09:30:14.530Z,21.55
2023-04-17T09:32:42.037Z,21.58
2023-04-17T09:35:09.578Z,22.48
2023-04-17T09:37:59.472Z,23.60
2023-04-17T09:40:36.089Z,23.45
2023-04-17T09:43:10.017Z,22.38
2023-04-17T09:45:42.068Z,22.02
2023-04-17T09:48:14.205Z,22.58
2023-04-17T09:50:41.678Z,22.90
2023-04-17T09:53:09.449Z,21.40
2023-04-17T09:55:38.890Z,20.35
2023-04-17T09:58:08.009Z,21.00
2023-04-17T10:00:37.874Z,21.65
2023-04-17T10:03:07.206Z,17.75
2023-04-17T10:05:35.923Z,15.82
2023-04-17T10:08:04.315Z,17.92
2023-04-17T10:10:34.147Z,17.17
2023-04-17T10:13:05.381Z,17.63
2023-04-17T10:15:34.239Z,18.35
2023-04-17T10:18:24.535Z,20.10
2023-04-17T10:20:54.303Z,19.25
2023-04-17T10:23:34.741Z,17.48
2023-04-17T10:26:26.210Z,17.90
2023-04-17T10:28:56.023Z,21.23
2023-04-17T10:31:43.519Z,19.27
2023-04-17T10:34:42.465Z,21.02
2023-04-17T10:37:15.633Z,18.88
2023-04-17T10:40:02.334Z,19.10
2023-04-17T10:42:30.723Z,20.42
2023-04-17T10:45:01.860Z,20.05
2023-04-17T10:47:34.418Z,20.73
2023-04-17T10:50:04.543Z,22.25
2023-04-17T10:52:35.088Z,21.90
2023-04-17T10:58:05.075Z,20.33
2023-04-17T11:00:51.425Z,20.38
2023-04-17T11:03:22.461Z,20.92
2023-04-17T11:05:49.802Z,20.20
2023-04-17T11:08:17.165Z,19.45
2023-04-17T11:10:44.685Z,23.20
2023-04-17T11:13:12.124Z,22.83
2023-04-17T11:15:39.535Z,25.38
2023-04-17T11:18:07.353Z,26.17
2023-04-17T11:20:40.317Z,23.42
2023-04-17T11:23:08.826Z,21.70
2023-04-17T11:25:37.302Z,21.92
2023-04-17T11:28:07.045Z,23.20
2023-04-17T11:30:38.297Z,23.90
2023-04-17T11:33:08.021Z,26.05
2023-04-17T11:35:41.579Z,25.38
2023-04-17T11:38:17.817Z,24.15
2023-04-17T11:40:59.150Z,26.40
2023-04-17T11:43:28.508Z,27.02
2023-04-17T11:46:03.612Z,30.67
2023-04-17T11:48:32.555Z,30.48
2023-04-17T11:51:04.727Z,31.65
2023-04-17T11:53:34.638Z,32.75
2023-04-17T11:56:19.069Z,32.35
2023-04-17T11:58:55.775Z,36.03
2023-04-17T12:01:28.611Z,33.67
2023-04-17T12:04:00.477Z,31.75
2023-04-17T12:06:38.739Z,34.00
2023-04-17T12:09:07.242Z,31.98
2023-04-17T12:11:35.922Z,32.20
2023-04-17T12:14:11.677Z,32.75
2023-04-17T12:16:39.155Z,33.35
2023-04-17T12:19:07.931Z,34.22
2023-04-17T12:21:35.393Z,32.97
2023-04-17T12:24:02.848Z,33.83
2023-04-17T12:26:30.500Z,33.75
2023-04-17T12:28:58.070Z,34.25
2023-04-17T12:31:25.438Z,30.17
2023-04-17T12:33:52.701Z,29.90
2023-04-17T12:36:20.183Z,31.20
2023-04-17T12:38:47.514Z,31.58
2023-04-17T12:41:14.869Z,32.22
2023-04-17T12:43:42.509Z,34.35
2023-04-17T12:46:09.918Z,32.78
2023-04-17T12:48:37.213Z,33.85
2023-04-17T12:51:04.765Z,29.75
2023-04-17T12:53:32.229Z,29.58
2023-04-17T12:55:59.887Z,28.38
2023-04-17T12:58:27.298Z,25.48
2023-04-17T13:00:54.606Z,25.75
2023-04-17T13:03:22.037Z,27.27
2023-04-17T13:05:53.437Z,27.50
2023-04-17T13:08:21.044Z,27.13
2023-04-17T13:10:48.329Z,28.67
2023-04-17T13:13:15.615Z,28.83
2023-04-17T13:15:45.941Z,26.98
2023-04-17T13:18:13.437Z,28.55
2023-04-17T13:20:40.790Z,29.85
2023-04-17T13:23:08.110Z,27.40
2023-04-17T13:25:35.653Z,29.13
2023-04-17T13:28:03.697Z,29.50
2023-04-17T13:30:32.374Z,29.27
2023-04-17T13:32:59.675Z,29.38
2023-04-17T13:35:27.074Z,29.50
2023-04-17T13:37:55.052Z,32.80
2023-04-17T13:40:22.177Z,33.17
2023-04-17T13:42:49.483Z,30.17
2023-04-17T13:45:16.832Z,29.58
2023-04-17T13:47:44.794Z,29.92
2023-04-17T13:50:12.381Z,24.30
2023-04-17T13:52:39.706Z,22.73
2023-04-17T13:55:11.885Z,24.98
2023-04-17T13:57:39.410Z,22.40
2023-04-17T14:00:07.800Z,24.25
2023-04-17T14:02:35.222Z,22.90
2023-04-17T14:05:02.719Z,21.13
2023-04-17T14:07:30.355Z,20.55
2023-04-17T14:09:57.627Z,20.38
2023-04-17T14:12:24.856Z,18.88
2023-04-17T14:14:52.100Z,18.77
2023-04-17T14:17:19.441Z,19.02
2023-04-17T14:19:46.763Z,19.73
2023-04-17T14:22:14.047Z,19.38
2023-04-17T14:24:41.321Z,19.58
2023-04-17T14:27:09.105Z,19.55
2023-04-17T14:29:36.519Z,18.73
2023-04-17T14:32:03.853Z,20.15
2023-04-17T14:34:31.121Z,19.42
2023-04-17T14:36:58.716Z,18.83
2023-04-17T14:39:25.996Z,18.60
2023-04-17T14:41:53.352Z,15.20
2023-04-17T14:44:21.128Z,15.63
2023-04-17T14:46:48.950Z,13.90
2023-04-17T14:49:16.784Z,12.65
2023-04-17T14:51:44.033Z,12.90
2023-04-17T14:54:11.446Z,12.75
2023-04-17T14:56:39.293Z,12.50
2023-04-17T14:59:06.638Z,12.40
2023-04-17T15:01:34.240Z,13.65
2023-04-17T15:04:02.231Z,11.55
2023-04-17T15:06:29.910Z,12.10
2023-04-17T15:08:57.349Z,11.40
2023-04-17T15:11:24.766Z,11.65
2023-04-17T15:13:52.110Z,13.82
2023-04-17T15:16:19.594Z,13.68
2023-04-17T15:18:46.869Z,12.85
2023-04-17T15:21:16.880Z,10.55
2023-04-17T15:23:44.197Z,11.52
2023-04-17T15:26:12.521Z,9.75
2023-04-17T15:28:40.451Z,7.95
2023-04-17T15:31:08.109Z,9.15
2023-04-17T15:33:36.116Z,8.02
2023-04-17T15:36:03.852Z,7.78
2023-04-17T15:38:31.196Z,8.48
2023-04-17T15:40:58.994Z,7.88
2023-04-17T15:43:26.957Z,8.10
2023-04-17T15:45:55.474Z,8.40
2023-04-17T15:48:22.732Z,8.05
2023-04-17T15:50:49.945Z,8.40
2023-04-17T15:53:17.209Z,9.55
2023-04-17T15:55:44.443Z,9.52
2023-04-17T15:58:11.723Z,9.25
2023-04-17T16:00:39.387Z,10.77
2023-04-17T16:03:07.999Z,10.63
2023-04-17T16:05:35.404Z,9.85
2023-04-17T16:08:02.745Z,10.30
2023-04-17T16:10:30.294Z,9.68
2023-04-17T16:12:58.035Z,9.75
2023-04-17T16:15:25.602Z,8.65
2023-04-17T16:17:53.013Z,8.95
2023-04-17T16:20:20.315Z,9.80
2023-04-17T16:22:47.688Z,8.00
2023-04-17T16:25:15.073Z,8.48
2023-04-17T16:27:42.462Z,9.02
2023-04-17T16:30:10.951Z,9.05
2023-04-17T16:32:38.334Z,8.93
2023-04-17T16:35:06.356Z,9.02
2023-04-17T16:37:33.606Z,10.90
2023-04-17T16:40:05.268Z,10.75
2023-04-17T16:42:33.218Z,10.63
2023-04-17T16:45:00.965Z,11.90
2023-04-17T16:47:31.634Z,12.60
2023-04-17T16:52:26.194Z,12.32
2023-04-17T16:54:53.444Z,12.80
2023-04-17T16:57:21.071Z,11.65
2023-04-17T16:59:48.353Z,13.00
2023-04-17T17:02:15.760Z,11.05
2023-04-17T17:04:45.094Z,11.07
2023-04-17T17:07:12.641Z,10.40
2023-04-17T17:09:39.824Z,9.38
2023-04-17T17:12:07.369Z,10.10
2023-04-17T17:14:34.679Z,9.60
2023-04-17T17:17:02.195Z,9.63
2023-04-17T17:19:29.441Z,9.45
2023-04-17T17:21:56.658Z,9.73
2023-04-17T17:24:24.240Z,12.02
2023-04-17T17:26:51.740Z,10.43
2023-04-17T17:29:19.175Z,10.55
2023-04-17T17:31:46.725Z,11.07
2023-04-17T17:36:44.264Z,12.52
2023-04-17T17:39:11.817Z,11.95
2023-04-17T17:41:39.324Z,13.02
2023-04-17T17:44:06.629Z,12.77
2023-04-17T17:46:35.854Z,13.82
2023-04-17T17:49:03.270Z,20.20
2023-04-17T17:51:31.335Z,19.33
2023-04-17T17:53:58.651Z,19.33
2023-04-17T17:56:26.084Z,18.10
2023-04-17T17:58:53.555Z,18.38
2023-04-17T18:01:23.612Z,18.65
2023-04-17T18:03:51.704Z,17.17
2023-04-17T18:06:19.181Z,18.08
2023-04-17T18:08:46.509Z,18.48
2023-04-17T18:11:14.237Z,20.27
2023-04-17T18:13:41.711Z,16.67
2023-04-17T18:16:09.241Z,18.05
2023-04-17T18:18:36.873Z,15.98
2023-04-17T18:21:08.319Z,17.73
2023-04-17T18:23:35.931Z,17.23
2023-04-17T18:26:04.339Z,15.63
2023-04-17T18:28:32.597Z,15.02
2023-04-17T18:30:59.922Z,14.52
2023-04-17T18:33:28.880Z,15.45
2023-04-17T18:35:56.224Z,15.40
2023-04-17T18:38:23.651Z,15.32
2023-04-17T18:40:57.094Z,17.00
2023-04-17T18:43:24.576Z,14.40
2023-04-17T18:45:52.191Z,16.45
2023-04-17T18:48:19.774Z,13.95
2023-04-17T18:50:47.272Z,15.43
2023-04-17T18:53:14.841Z,14.85
2023-04-17T18:55:42.081Z,14.00
2023-04-17T18:58:09.524Z,13.02
2023-04-17T19:00:37.704Z,14.70
2023-04-17T19:03:06.602Z,15.00
2023-04-17T19:05:34.159Z,13.55
2023-04-17T19:08:01.581Z,14.90
2023-04-17T19:10:30.084Z,13.05
2023-04-17T19:12:57.318Z,13.07
2023-04-17T19:15:25.129Z,12.25
2023-04-17T19:17:52.948Z,13.38
2023-04-17T19:20:20.326Z,13.25
2023-04-17T19:22:47.692Z,12.57
2023-04-17T19:25:15.107Z,13.48
2023-04-17T19:27:42.679Z,13.50
2023-04-17T19:30:11.778Z,13.75
2023-04-17T19:32:39.080Z,12.02
2023-04-17T19:35:07.764Z,9.95
2023-04-17T19:37:35.362Z,11.43
2023-04-17T19:40:08.581Z,12.38
2023-04-17T19:42:41.918Z,11.90
2023-04-17T19:45:10.875Z,10.15
2023-04-17T19:47:40.337Z,10.18
2023-04-17T19:50:10.119Z,10.48
2023-04-17T19:52:40.771Z,10.43
2023-04-17T19:57:36.696Z,11.10
2023-04-17T20:00:04.468Z,11.00
2023-04-17T20:02:39.965Z,11.65
2023-04-17T20:05:09.120Z,12.02
2023-04-17T20:07:36.696Z,12.10
2023-04-17T20:10:04.907Z,10.70
2023-04-17T20:12:32.376Z,11.32
2023-04-17T20:14:59.642Z,11.25
2023-04-17T20:17:27.008Z,11.68
2023-04-17T20:19:54.354Z,10.65
2023-04-17T20:22:21.587Z,10.55
2023-04-17T20:24:50.886Z,10.30
2023-04-17T20:27:18.748Z,7.90
2023-04-17T20:29:46.194Z,9.73
2023-04-17T20:32:13.754Z,8.88
2023-04-17T20:34:41.023Z,9.18
2023-04-17T20:37:08.339Z,9.05
2023-04-17T20:39:35.681Z,7.35
2023-04-17T20:42:03.173Z,8.65
2023-04-17T20:44:32.486Z,9.77
2023-04-17T20:46:59.764Z,8.25
2023-04-17T20:49:27.040Z,9.25
2023-04-17T20:51:54.330Z,8.75
2023-04-17T20:54:23.256Z,9.93
2023-04-17T20:56:50.962Z,9.77
2023-04-17T20:59:18.400Z,8.57
2023-04-17T21:01:45.660Z,8.77
2023-04-17T21:04:13.174Z,8.43
2023-04-17T21:06:40.841Z,7.35
2023-04-17T21:09:08.936Z,8.25
2023-04-17T21:11:36.120Z,8.68
2023-04-17T21:14:03.900Z,8.25
2023-04-17T21:16:31.377Z,7.05
2023-04-17T21:18:58.840Z,7.70
2023-04-17T21:21:26.949Z,8.93
2023-04-17T21:23:54.246Z,9.55
2023-04-17T21:26:21.917Z,9.80
2023-04-17T21:28:49.223Z,9.82
2023-04-17T21:31:16.754Z,10.00
2023-04-17T21:33:44.188Z,9.32
2023-04-17T21:36:11.479Z,11.13
2023-04-17T21:38:39.046Z,12.48
2023-04-17T21:41:06.277Z,11.93
2023-04-17T21:43:33.515Z,10.25
2023-04-17T21:46:01.011Z,11.63
2023-04-17T21:48:28.500Z,11.13
2023-04-17T21:51:05.334Z,11.40
2023-04-17T21:53:35.665Z,11.35
2023-04-17T21:56:05.039Z,10.07
2023-04-17T21:58:34.085Z,9.90
2023-04-17T22:01:01.539Z,11.45
2023-04-17T22:03:28.943Z,9.95
2023-04-17T22:05:57.526Z,11.07
2023-04-17T22:08:25.080Z,10.80
2023-04-17T22:10:52.607Z,10.13
2023-04-17T22:13:19.858Z,8.45
2023-04-17T22:15:49.336Z,9.75
2023-04-17T22:18:16.603Z,8.82
2023-04-17T22:20:43.971Z,9.55
2023-04-17T22:23:11.156Z,12.32
2023-04-17T22:25:38.431Z,10.00
2023-04-17T22:28:05.689Z,8.13
2023-04-17T22:30:32.995Z,8.48
2023-04-17T22:33:00.598Z,9.55
2023-04-17T22:35:28.119Z,8.52
2023-04-17T22:37:55.363Z,10.13
2023-04-17T22:40:22.569Z,9.60
2023-04-17T22:42:51.087Z,8.90
2023-04-17T22:45:18.338Z,8.85
2023-04-17T22:47:45.576Z,8.20
2023-04-17T22:50:14.282Z,8.30
2023-04-17T22:52:41.620Z,8.43
2023-04-17T22:55:09.801Z,8.65
2023-04-17T22:57:37.238Z,8.15
2023-04-17T23:00:08.901Z,9.07
2023-04-17T23:02:36.852Z,8.45
2023-04-17T23:05:06.828Z,7.72
2023-04-17T23:07:34.160Z,7.65
2023-04-17T23:10:01.494Z,7.88
2023-04-17T23:12:28.680Z,7.07
2023-04-17T23:14:57.622Z,6.75
2023-04-17T23:17:24.924Z,6.65
2023-04-17T23:19:53.201Z,7.47
2023-04-17T23:22:20.509Z,6.90
2023-04-17T23:24:47.752Z,6.63
2023-04-17T23:27:15.055Z,7.05
2023-04-17T23:29:42.239Z,6.95
2023-04-17T23:32:09.640Z,9.18
2023-04-17T23:34:37.652Z,10.45
2023-04-17T23:37:05.447Z,9.77
2023-04-17T23:39:32.758Z,9.77
2023-04-17T23:42:05.692Z,10.45
2023-04-17T23:44:34.672Z,11.98
2023-04-17T23:47:03.816Z,10.38
2023-04-17T23:49:31.309Z,8.32
2023-04-17T23:51:58.548Z,8.02
2023-04-17T23:54:25.949Z,9.25
2023-04-17T23:56:53.649Z,8.55
2023-04-17T23:59:20.939Z,9.05
